Time;durP1;ratioP1;P1;durP2;ratioP2;P2;SDS_P1;SDS_P2;PMS_P1;PMS_P2;Temp;Humidity;BMP_temperature;BMP_pressure;BME280_temperature;BME280_humidity;BME280_pressure;Samples;Min_cycle;Max_cycle;Signal;HPM_P1;HPM_P2
2021/01/28 00:02:12;;;;;;;13.67;12.77;;;3.30;99.90;;;;;;5068035;28;20437;-79
2021/01/28 00:04:38;;;;;;;14.07;13.07;;;3.30;99.90;;;;;;5066827;28;20450;-79
2021/01/28 00:07:04;;;;;;;14.00;13.00;;;3.30;99.90;;;;;;5070380;28;20472;-79
2021/01/28 00:09:31;;;;;;;14.17;13.20;;;3.30;99.90;;;;;;5065089;28;20465;-79
2021/01/28 00:11:58;;;;;;;14.30;13.30;;;3.30;99.90;;;;;;5063599;28;20436;-79
2021/01/28 00:14:24;;;;;;;13.37;12.47;;;3.30;99.90;;;;;;5064677;28;20439;-79
2021/01/28 00:16:50;;;;;;;13.23;12.33;;;3.40;99.90;;;;;;5064963;28;20426;-79
2021/01/28 00:19:17;;;;;;;13.40;12.50;;;3.40;99.90;;;;;;5066725;28;20442;-79
2021/01/28 00:21:43;;;;;;;13.47;12.47;;;3.40;99.90;;;;;;5063965;28;20449;-79
2021/01/28 00:24:10;;;;;;;13.50;12.50;;;3.40;99.90;;;;;;5067248;28;20436;-79
2021/01/28 00:26:38;;;;;;;12.63;11.83;;;3.40;99.90;;;;;;5061405;28;20467;-79
2021/01/28 00:29:04;;;;;;;13.80;12.80;;;3.40;99.90;;;;;;5062691;28;20448;-79
2021/01/28 00:31:31;;;;;;;13.47;12.50;;;3.40;99.90;;;;;;5058398;28;20452;-79
2021/01/28 00:33:57;;;;;;;12.77;11.97;;;3.40;99.90;;;;;;5065042;28;20434;-79
2021/01/28 00:36:24;;;;;;;13.70;12.80;;;3.40;99.90;;;;;;5069428;28;20468;-79
2021/01/28 00:38:53;;;;;;;13.10;12.20;;;3.40;99.90;;;;;;5066592;28;20436;-79
2021/01/28 00:41:19;;;;;;;13.30;12.40;;;3.40;99.90;;;;;;5068318;28;20632;-79
2021/01/28 00:43:46;;;;;;;13.77;12.77;;;3.40;99.90;;;;;;5066665;28;20438;-79
2021/01/28 00:46:13;;;;;;;13.53;12.57;;;3.40;99.90;;;;;;5058486;28;20999;-79
2021/01/28 00:48:41;;;;;;;13.60;12.60;;;3.40;99.90;;;;;;5066635;28;20432;-79
2021/01/28 00:51:07;;;;;;;13.83;12.87;;;3.40;99.90;;;;;;5062778;28;20448;-79
2021/01/28 00:53:34;;;;;;;13.83;12.93;;;3.40;99.90;;;;;;5060599;28;20449;-79
2021/01/28 00:56:00;;;;;;;14.00;13.00;;;3.40;99.90;;;;;;5062699;28;20536;-79
2021/01/28 00:58:49;;;;;;;15.13;13.93;;;3.40;99.90;;;;;;5066094;28;20519;-79
2021/01/28 01:01:17;;;;;;;14.80;13.73;;;3.40;99.90;;;;;;5066596;28;20543;-79
2021/01/28 01:03:44;;;;;;;15.00;13.90;;;3.40;99.90;;;;;;5058626;28;20442;-79
2021/01/28 01:06:10;;;;;;;15.00;13.90;;;3.40;99.90;;;;;;5066978;28;21036;-79
2021/01/28 01:08:37;;;;;;;14.83;13.73;;;3.40;99.90;;;;;;5060576;28;20440;-79
2021/01/28 01:11:13;;;;;;;15.77;14.57;;;3.40;99.90;;;;;;5061477;28;20472;-79
2021/01/28 01:13:42;;;;;;;15.17;14.07;;;3.40;99.90;;;;;;5065320;28;20932;-79
2021/01/28 01:16:17;;;;;;;14.50;13.50;;;3.40;99.90;;;;;;5053571;28;20593;-79
2021/01/28 01:18:48;;;;;;;13.93;13.03;;;3.40;99.90;;;;;;5061547;28;20794;-79
2021/01/28 01:21:15;;;;;;;15.60;14.20;;;3.40;99.90;;;;;;5065088;28;20544;-79
2021/01/28 01:23:44;;;;;;;13.73;12.77;;;3.50;99.90;;;;;;5065350;28;20752;-79
2021/01/28 01:26:17;;;;;;;14.90;13.70;;;3.40;99.90;;;;;;5065452;28;20552;-79
2021/01/28 01:28:45;;;;;;;14.10;13.10;;;3.50;99.90;;;;;;5058157;28;20507;-79
2021/01/28 01:31:20;;;;;;;14.30;13.00;;;3.50;99.90;;;;;;5057133;28;20861;-79
2021/01/28 01:33:46;;;;;;;14.43;13.37;;;3.50;99.90;;;;;;5059637;28;20449;-79
2021/01/28 01:36:13;;;;;;;13.43;12.53;;;3.50;99.90;;;;;;5062780;28;20999;-79
2021/01/28 01:39:01;;;;;;;13.77;12.77;;;3.50;99.90;;;;;;5059820;28;20983;-79
2021/01/28 01:41:40;;;;;;;14.13;13.13;;;3.50;99.90;;;;;;5055700;28;20467;-79
2021/01/28 01:44:09;;;;;;;13.67;12.60;;;3.50;99.90;;;;;;5057534;28;20833;-79
2021/01/28 01:46:42;;;;;;;14.50;13.40;;;3.50;99.90;;;;;;5062339;28;20480;-79
2021/01/28 01:49:20;;;;;;;13.90;12.90;;;3.50;99.90;;;;;;5065925;28;20891;-79
2021/01/28 01:51:46;;;;;;;14.60;13.50;;;3.40;99.90;;;;;;5064931;28;20480;-79
2021/01/28 01:54:28;;;;;;;14.20;13.10;;;3.50;99.90;;;;;;5066128;28;20692;-79
2021/01/28 01:57:02;;;;;;;13.90;12.90;;;3.50;99.90;;;;;;5066455;28;20464;-79
2021/01/28 01:59:40;;;;;;;13.80;12.83;;;3.50;99.90;;;;;;5053294;28;20987;-79
2021/01/28 02:02:40;;;;;;;14.23;13.20;;;3.50;99.90;;;;;;5056567;28;20841;-79
2021/01/28 02:05:29;;;;;;;14.20;13.20;;;3.50;99.90;;;;;;5062462;28;20484;-79
2021/01/28 02:08:15;;;;;;;15.03;13.93;;;3.50;99.90;;;;;;5063519;28;20508;-79
2021/01/28 02:11:04;;;;;;;15.30;14.10;;;3.50;99.90;;;;;;5070015;28;20565;-79
2021/01/28 02:14:04;;;;;;;14.30;13.30;;;3.50;99.90;;;;;;5045141;28;20990;-79
2021/01/28 02:17:06;;;;;;;15.27;14.07;;;3.50;99.90;;;;;;5060528;28;20448;-79
2021/01/28 02:20:19;;;;;;;14.77;13.63;;;3.50;99.90;;;;;;5060257;28;20492;-79
2021/01/28 02:23:08;;;;;;;14.53;13.40;;;3.50;99.90;;;;;;5058900;28;20450;-79
2021/01/28 02:25:37;;;;;;;14.80;13.60;;;3.50;99.90;;;;;;5054897;28;20469;-79
2021/01/28 02:28:08;;;;;;;13.70;12.80;;;3.50;99.90;;;;;;5062307;28;20497;-79
2021/01/28 02:30:50;;;;;;;14.80;13.70;;;3.50;99.90;;;;;;5056566;28;20510;-79
2021/01/28 02:33:46;;;;;;;14.40;13.30;;;3.50;99.90;;;;;;5064349;28;20446;-79
2021/01/28 02:36:27;;;;;;;13.40;12.50;;;3.60;99.90;;;;;;5062332;28;20571;-79
2021/01/28 02:38:55;;;;;;;14.13;13.13;;;3.60;99.90;;;;;;5065724;28;20452;-79
2021/01/28 02:41:23;;;;;;;13.50;12.60;;;3.60;99.90;;;;;;5063267;28;20475;-79
2021/01/28 02:44:03;;;;;;;12.87;11.97;;;3.60;99.90;;;;;;5058490;28;20981;-79
2021/01/28 02:46:59;;;;;;;14.13;13.17;;;3.60;99.90;;;;;;5058413;22;20952;-80
2021/01/28 02:49:45;;;;;;;13.30;12.43;;;3.60;99.90;;;;;;5044301;28;20527;-79
2021/01/28 02:52:11;;;;;;;13.40;12.50;;;3.70;99.90;;;;;;5042835;28;20534;-79
2021/01/28 02:54:44;;;;;;;13.07;12.17;;;3.60;99.90;;;;;;5043396;28;20467;-79
2021/01/28 02:57:11;;;;;;;12.87;12.07;;;3.60;99.90;;;;;;5037701;28;20595;-79
2021/01/28 02:59:40;;;;;;;12.93;12.03;;;3.60;99.90;;;;;;5039530;28;20539;-79
2021/01/28 03:02:10;;;;;;;13.53;12.63;;;3.70;99.90;;;;;;5030491;28;20463;-79
2021/01/28 03:04:37;;;;;;;13.63;12.43;;;3.70;99.90;;;;;;5040654;28;20786;-79
2021/01/28 03:07:24;;;;;;;13.60;12.70;;;3.70;99.90;;;;;;5039282;28;21082;-79
2021/01/28 03:09:50;;;;;;;13.03;12.20;;;3.70;99.90;;;;;;5034547;28;20455;-79
2021/01/28 03:12:24;;;;;;;13.30;12.47;;;3.70;99.90;;;;;;5039654;28;20544;-79
2021/01/28 03:14:56;;;;;;;13.20;12.30;;;3.70;99.90;;;;;;5036438;28;20478;-79
2021/01/28 03:17:23;;;;;;;13.43;12.53;;;3.70;99.90;;;;;;5043228;28;20447;-79
2021/01/28 03:19:55;;;;;;;13.23;12.23;;;3.70;99.90;;;;;;5035361;28;20445;-79
2021/01/28 03:22:22;;;;;;;13.57;12.57;;;3.70;99.90;;;;;;5034372;28;20449;-79
2021/01/28 03:25:11;;;;;;;13.17;12.37;;;3.70;99.90;;;;;;5031677;28;20997;-79
2021/01/28 03:27:39;;;;;;;13.97;12.87;;;3.70;99.90;;;;;;5035626;28;20478;-80
2021/01/28 03:30:08;;;;;;;13.30;12.40;;;3.70;99.90;;;;;;5022355;28;20960;-80
2021/01/28 03:32:34;;;;;;;13.27;12.37;;;3.70;99.90;;;;;;5042975;28;20454;-79
2021/01/28 03:35:01;;;;;;;13.90;13.00;;;3.70;99.90;;;;;;5030825;28;20467;-79
2021/01/28 03:37:30;;;;;;;13.40;12.50;;;3.60;99.90;;;;;;5040205;28;20499;-79
2021/01/28 03:39:59;;;;;;;13.90;13.00;;;3.60;99.90;;;;;;5041454;28;20434;-79
2021/01/28 03:42:26;;;;;;;14.17;13.07;;;3.60;99.90;;;;;;5042678;28;20446;-78
2021/01/28 03:44:55;;;;;;;14.40;13.40;;;3.60;99.90;;;;;;5037139;28;20501;-79
2021/01/28 03:47:25;;;;;;;14.90;13.60;;;3.50;99.90;;;;;;5052196;28;20611;-78
2021/01/28 03:50:10;;;;;;;14.10;13.10;;;3.50;99.90;;;;;;5043481;28;20453;-79
2021/01/28 03:52:41;;;;;;;14.53;13.53;;;3.50;99.90;;;;;;5039408;28;20450;-79
2021/01/28 03:55:29;;;;;;;14.30;13.30;;;3.50;99.90;;;;;;5037574;28;20450;-79
2021/01/28 03:57:55;;;;;;;15.10;13.90;;;3.50;99.90;;;;;;5034870;28;20454;-79
2021/01/28 04:00:26;;;;;;;15.33;14.23;;;3.50;99.90;;;;;;5037799;28;20497;-80
2021/01/28 04:03:02;;;;;;;16.07;14.80;;;3.50;99.90;;;;;;5035433;28;20488;-80
2021/01/28 04:05:52;;;;;;;16.30;15.10;;;3.50;99.90;;;;;;5015985;28;20500;-81
2021/01/28 04:08:42;;;;;;;15.80;14.57;;;3.40;99.90;;;;;;5035541;28;20541;-78
2021/01/28 04:11:36;;;;;;;15.97;14.77;;;3.40;99.90;;;;;;5033353;28;20461;-79
2021/01/28 04:14:15;;;;;;;16.77;15.47;;;3.30;99.90;;;;;;5046799;28;20539;-79
2021/01/28 04:16:43;;;;;;;15.63;14.43;;;3.30;99.90;;;;;;5032624;28;21093;-78
2021/01/28 04:19:09;;;;;;;16.43;15.20;;;3.30;99.90;;;;;;5033549;28;20459;-79
2021/01/28 04:21:44;;;;;;;17.43;16.03;;;3.30;99.90;;;;;;5042693;28;20449;-76
2021/01/28 04:24:11;;;;;;;15.63;14.53;;;3.30;99.90;;;;;;5037241;28;20454;-76
2021/01/28 04:26:45;;;;;;;16.00;14.70;;;3.30;99.90;;;;;;5030422;28;20591;-79
2021/01/28 04:29:13;;;;;;;15.73;14.63;;;3.30;99.90;;;;;;5052044;28;20443;-78
2021/01/28 04:31:46;;;;;;;15.40;14.30;;;3.20;99.90;;;;;;5040678;28;20452;-79
2021/01/28 04:34:32;;;;;;;16.70;15.50;;;3.20;99.90;;;;;;5031104;28;20439;-79
2021/01/28 04:37:03;;;;;;;17.10;15.87;;;3.20;99.90;;;;;;5042868;28;20449;-79
2021/01/28 04:39:50;;;;;;;16.97;15.73;;;3.20;99.90;;;;;;5035289;28;20447;-79
2021/01/28 04:42:20;;;;;;;17.50;16.00;;;3.30;99.90;;;;;;5041667;28;20893;-79
2021/01/28 04:44:49;;;;;;;15.97;14.77;;;3.30;99.90;;;;;;5039857;28;20846;-80
2021/01/28 04:47:21;;;;;;;15.77;14.57;;;3.30;99.90;;;;;;5035466;28;20472;-80
2021/01/28 04:49:54;;;;;;;16.10;14.87;;;3.30;99.90;;;;;;5039764;28;20438;-80
2021/01/28 04:52:42;;;;;;;16.13;14.83;;;3.40;99.90;;;;;;5031578;28;20521;-80
2021/01/28 04:55:49;;;;;;;16.80;15.40;;;3.30;99.90;;;;;;5039090;28;20510;-80
2021/01/28 04:58:16;;;;;;;16.37;15.17;;;3.30;99.90;;;;;;5041619;28;20444;-81
2021/01/28 05:00:56;;;;;;;16.77;15.47;;;3.20;99.90;;;;;;5033174;28;20488;-80
2021/01/28 05:03:52;;;;;;;15.73;14.43;;;3.30;99.90;;;;;;5024080;28;20460;-79
2021/01/28 05:06:40;;;;;;;15.87;14.67;;;3.30;99.90;;;;;;5023955;28;20541;-79
2021/01/28 05:09:36;;;;;;;15.97;14.70;;;3.40;99.90;;;;;;5037831;28;20552;-79
2021/01/28 05:12:32;;;;;;;16.00;14.70;;;3.40;99.90;;;;;;5040156;28;20510;-79
2021/01/28 05:15:16;;;;;;;16.97;15.67;;;3.50;99.90;;;;;;5039568;28;20567;-79
2021/01/28 05:18:10;;;;;;;15.60;14.40;;;3.50;99.90;;;;;;5039241;28;20521;-79
2021/01/28 05:21:16;;;;;;;15.73;14.57;;;3.50;99.90;;;;;;5040317;28;20466;-79
2021/01/28 05:23:46;;;;;;;15.70;14.50;;;3.50;99.90;;;;;;5043203;28;20610;-79
2021/01/28 05:26:32;;;;;;;18.07;16.57;;;3.50;99.90;;;;;;5033673;28;21052;-79
2021/01/28 05:29:20;;;;;;;16.70;15.40;;;3.40;99.90;;;;;;5040803;28;21033;-79
2021/01/28 05:32:15;;;;;;;16.53;15.23;;;3.40;99.90;;;;;;5045306;28;20453;-79
2021/01/28 05:35:22;;;;;;;16.87;15.47;;;3.30;99.90;;;;;;5023265;28;20462;-80
2021/01/28 05:38:24;;;;;;;17.80;16.27;;;3.30;99.90;;;;;;5039769;28;20446;-78
2021/01/28 05:41:13;;;;;;;17.40;16.00;;;3.20;99.90;;;;;;5041989;28;20516;-79
2021/01/28 05:43:46;;;;;;;16.73;15.40;;;3.20;99.90;;;;;;5037337;28;20809;-79
2021/01/28 05:46:31;;;;;;;17.33;15.93;;;3.20;99.90;;;;;;5029117;28;20482;-79
2021/01/28 05:49:20;;;;;;;17.17;15.90;;;3.20;99.90;;;;;;5048105;28;20444;-79
2021/01/28 05:52:13;;;;;;;16.80;15.50;;;3.20;99.90;;;;;;5033473;28;20447;-79
2021/01/28 05:55:07;;;;;;;17.70;16.20;;;3.20;99.90;;;;;;5045395;28;20459;-78
2021/01/28 05:57:57;;;;;;;17.57;16.10;;;3.20;99.90;;;;;;5053349;28;20443;-79
2021/01/28 06:00:41;;;;;;;17.33;15.93;;;3.20;99.90;;;;;;5043248;28;20438;-79
2021/01/28 06:03:47;;;;;;;19.20;17.50;;;3.20;99.90;;;;;;5045148;28;20447;-78
2021/01/28 06:06:51;;;;;;;18.37;16.77;;;3.20;99.90;;;;;;5038522;28;20478;-79
2021/01/28 06:09:56;;;;;;;18.40;16.90;;;3.20;99.90;;;;;;5030636;28;20456;-79
2021/01/28 06:12:50;;;;;;;18.90;17.30;;;3.20;99.90;;;;;;5038925;28;20942;-79
2021/01/28 06:15:26;;;;;;;19.83;18.03;;;3.20;99.90;;;;;;5038942;28;20468;-79
2021/01/28 06:18:47;;;;;;;19.20;17.53;;;3.10;99.90;;;;;;5046044;28;20440;-79
2021/01/28 06:21:53;;;;;;;18.97;17.37;;;3.10;99.90;;;;;;5043533;28;20442;-78
2021/01/28 06:25:24;;;;;;;18.97;17.37;;;3.20;99.90;;;;;;5035921;28;20502;-78
2021/01/28 06:28:13;;;;;;;19.57;17.87;;;3.20;99.90;;;;;;5033255;28;20467;-79
2021/01/28 06:31:04;;;;;;;19.93;18.33;;;3.20;99.90;;;;;;5031452;28;20451;-79
2021/01/28 06:34:07;;;;;;;18.23;16.73;;;3.20;99.90;;;;;;5038096;28;20526;-79
2021/01/28 06:37:23;;;;;;;18.43;16.83;;;3.20;99.90;;;;;;5038140;28;20883;-79
2021/01/28 06:40:17;;;;;;;19.83;18.10;;;3.20;99.90;;;;;;5014378;28;20453;-79
2021/01/28 06:43:12;;;;;;;19.60;17.97;;;3.20;99.90;;;;;;5027945;28;20510;-79
2021/01/28 06:46:09;;;;;;;19.37;17.67;;;3.20;99.90;;;;;;5043835;28;20485;-78
2021/01/28 06:48:46;;;;;;;18.83;17.23;;;3.20;99.90;;;;;;5035531;28;20500;-79
2021/01/28 06:51:36;;;;;;;18.77;17.10;;;3.20;99.90;;;;;;5038261;28;20882;-79
2021/01/28 06:54:11;;;;;;;17.60;16.00;;;3.20;99.90;;;;;;5042726;28;20971;-78
2021/01/28 06:57:07;;;;;;;18.80;17.10;;;3.30;99.90;;;;;;5042516;28;20994;-78
2021/01/28 06:59:58;;;;;;;18.27;16.80;;;3.20;99.90;;;;;;5039284;28;20530;-78
2021/01/28 07:02:45;;;;;;;18.10;16.77;;;3.30;99.90;;;;;;5038286;28;20441;-79
2021/01/28 07:05:45;;;;;;;19.30;17.53;;;3.30;99.90;;;;;;5023378;28;21046;-79
2021/01/28 07:08:39;;;;;;;17.60;16.20;;;3.30;99.90;;;;;;5036717;28;20916;-78
2021/01/28 07:11:34;;;;;;;17.73;16.33;;;3.30;99.90;;;;;;5040802;28;20511;-78
2021/01/28 07:14:32;;;;;;;17.30;15.93;;;3.30;99.90;;;;;;5034498;28;20459;-79
2021/01/28 07:17:12;;;;;;;18.20;16.57;;;3.30;99.90;;;;;;5046868;28;20469;-79
2021/01/28 07:19:41;;;;;;;18.40;16.90;;;3.40;99.90;;;;;;5042408;28;20434;-79
2021/01/28 07:22:26;;;;;;;17.57;16.17;;;3.40;99.90;;;;;;5040624;28;20489;-78
2021/01/28 07:24:57;;;;;;;18.17;16.70;;;3.40;99.90;;;;;;5042811;28;20549;-79
2021/01/28 07:27:54;;;;;;;17.87;16.47;;;3.40;99.90;;;;;;5031493;28;20474;-79
2021/01/28 07:30:38;;;;;;;18.07;16.47;;;3.40;99.90;;;;;;5045369;28;20922;-79
2021/01/28 07:33:06;;;;;;;18.53;17.03;;;3.40;99.90;;;;;;5035847;28;20462;-79
2021/01/28 07:35:54;;;;;;;17.80;16.37;;;3.50;99.90;;;;;;5025727;28;20897;-79
2021/01/28 07:38:46;;;;;;;18.60;17.10;;;3.50;99.90;;;;;;5031452;28;20455;-79
2021/01/28 07:41:52;;;;;;;17.70;16.37;;;3.50;99.90;;;;;;5032182;28;20543;-79
2021/01/28 07:44:59;;;;;;;18.10;16.67;;;3.50;99.90;;;;;;5033501;28;20420;-79
2021/01/28 07:47:59;;;;;;;16.93;15.40;;;3.50;99.90;;;;;;5041545;28;20486;-78
2021/01/28 07:50:45;;;;;;;17.30;16.00;;;3.60;99.90;;;;;;5036184;28;20429;-79
2021/01/28 07:53:37;;;;;;;17.03;15.83;;;3.60;99.90;;;;;;5034765;28;20441;-79
2021/01/28 07:56:04;;;;;;;17.73;16.23;;;3.60;99.90;;;;;;5040136;28;20306;-79
2021/01/28 07:58:34;;;;;;;17.90;16.40;;;3.70;99.90;;;;;;5034500;28;20447;-78
2021/01/28 08:01:06;;;;;;;18.97;17.37;;;3.70;99.90;;;;;;5043029;28;20441;-79
2021/01/28 08:03:35;;;;;;;18.90;17.50;;;3.70;99.90;;;;;;5030149;28;20434;-79
2021/01/28 08:06:07;;;;;;;18.77;17.20;;;3.70;99.90;;;;;;5043002;28;20489;-78
2021/01/28 08:08:33;;;;;;;18.40;16.90;;;3.70;99.90;;;;;;5032787;28;20534;-79
2021/01/28 08:11:18;;;;;;;18.13;16.73;;;3.70;99.90;;;;;;5031565;28;20200;-79
2021/01/28 08:13:45;;;;;;;19.13;17.33;;;3.80;99.90;;;;;;5035709;28;20451;-79
2021/01/28 08:16:18;;;;;;;17.90;16.50;;;3.80;99.90;;;;;;5040312;28;20877;-79
2021/01/28 08:18:59;;;;;;;17.47;16.10;;;3.90;99.90;;;;;;5042611;28;20431;-79
2021/01/28 08:21:27;;;;;;;17.20;15.90;;;4.00;99.90;;;;;;5045704;28;20660;-79
2021/01/28 08:23:55;;;;;;;16.60;15.47;;;4.00;99.90;;;;;;5044590;28;20950;-79
2021/01/28 08:26:26;;;;;;;15.80;14.70;;;4.00;99.90;;;;;;5033919;28;20520;-79
2021/01/28 08:29:05;;;;;;;15.53;14.43;;;4.10;99.90;;;;;;5034333;28;20468;-80
2021/01/28 08:31:37;;;;;;;14.30;13.20;;;4.10;99.90;;;;;;5036195;28;20975;-79
2021/01/28 08:34:06;;;;;;;14.53;13.63;;;4.20;99.90;;;;;;5036299;28;20454;-79
2021/01/28 08:36:40;;;;;;;14.67;13.70;;;4.20;99.90;;;;;;5040763;28;20465;-79
2021/01/28 08:39:10;;;;;;;15.00;14.00;;;4.30;99.90;;;;;;5034739;28;20454;-79
2021/01/28 08:41:36;;;;;;;15.77;14.77;;;4.30;99.90;;;;;;5042213;28;20438;-79
2021/01/28 08:44:06;;;;;;;15.93;14.87;;;4.30;99.90;;;;;;5044718;28;20471;-79
2021/01/28 08:46:33;;;;;;;17.60;16.40;;;4.30;99.90;;;;;;5062890;23;20495;-77
2021/01/28 08:49:06;;;;;;;18.50;17.20;;;4.30;99.90;;;;;;5055620;28;20481;-77
2021/01/28 08:51:38;;;;;;;17.30;16.00;;;4.30;99.90;;;;;;5050457;28;20449;-78
2021/01/28 08:54:14;;;;;;;17.23;16.03;;;4.30;99.90;;;;;;5058399;28;20518;-77
2021/01/28 08:56:41;;;;;;;17.23;15.87;;;4.30;99.90;;;;;;5049029;28;20514;-77
2021/01/28 08:59:12;;;;;;;17.57;16.20;;;4.30;99.90;;;;;;5044800;28;20199;-77
2021/01/28 09:01:40;;;;;;;17.97;16.57;;;4.30;99.90;;;;;;5048985;28;20203;-77
2021/01/28 09:04:11;;;;;;;18.20;16.70;;;4.30;99.90;;;;;;5036879;28;20203;-78
2021/01/28 09:06:44;;;;;;;18.07;16.47;;;4.30;99.90;;;;;;5046052;28;20219;-77
2021/01/28 09:09:23;;;;;;;18.07;16.67;;;4.30;99.90;;;;;;5043458;28;20269;-77
2021/01/28 09:11:50;;;;;;;18.50;17.10;;;4.30;99.90;;;;;;5044216;28;20636;-77
2021/01/28 09:14:32;;;;;;;19.57;18.00;;;4.30;99.90;;;;;;5051747;28;20433;-77
2021/01/28 09:17:01;;;;;;;17.10;15.83;;;4.30;99.90;;;;;;5042318;28;20220;-77
2021/01/28 09:19:29;;;;;;;16.77;15.47;;;4.30;99.90;;;;;;5043736;28;20195;-77
2021/01/28 09:22:01;;;;;;;16.20;15.03;;;4.40;99.90;;;;;;5046228;28;20448;-77
2021/01/28 09:24:46;;;;;;;16.07;14.87;;;4.50;99.90;;;;;;5043367;28;20560;-77
2021/01/28 09:27:33;;;;;;;16.37;15.17;;;4.50;99.90;;;;;;5041012;28;20231;-77
2021/01/28 09:30:21;;;;;;;15.97;14.87;;;4.60;99.90;;;;;;5039603;28;20664;-77
2021/01/28 09:32:47;;;;;;;15.97;14.80;;;4.60;99.90;;;;;;5028315;28;20508;-77
2021/01/28 09:35:18;;;;;;;15.93;14.80;;;4.60;99.90;;;;;;5045307;28;20441;-77
2021/01/28 09:37:59;;;;;;;16.80;15.50;;;4.60;99.90;;;;;;5040614;28;20552;-77
2021/01/28 09:40:30;;;;;;;15.70;14.60;;;4.70;99.90;;;;;;5039305;28;20206;-77
2021/01/28 09:43:16;;;;;;;16.17;14.87;;;4.70;99.90;;;;;;5037953;28;20657;-77
2021/01/28 09:45:43;;;;;;;16.53;15.40;;;4.80;99.90;;;;;;5033428;28;20237;-77
2021/01/28 09:48:09;;;;;;;14.63;13.53;;;4.90;99.90;;;;;;5044648;28;20247;-77
2021/01/28 09:50:36;;;;;;;16.57;15.47;;;4.90;99.90;;;;;;5045955;28;20217;-77
2021/01/28 09:53:03;;;;;;;17.40;16.10;;;4.90;99.90;;;;;;5036905;28;20324;-77
2021/01/28 09:55:30;;;;;;;17.50;16.30;;;4.90;99.90;;;;;;5037976;28;20472;-77
2021/01/28 09:57:57;;;;;;;17.03;15.93;;;4.90;99.90;;;;;;5041751;28;20782;-77
2021/01/28 10:00:25;;;;;;;18.33;17.03;;;4.90;99.90;;;;;;5041111;28;20211;-77
2021/01/28 10:02:56;;;;;;;16.70;15.50;;;5.00;99.90;;;;;;5041435;28;20271;-77
2021/01/28 10:05:24;;;;;;;16.17;15.17;;;5.00;99.90;;;;;;5044265;28;20245;-78
2021/01/28 10:07:51;;;;;;;16.07;14.93;;;5.10;99.90;;;;;;5041896;28;20738;-78
2021/01/28 10:10:21;;;;;;;16.10;14.90;;;5.10;99.90;;;;;;5043938;28;20192;-77
2021/01/28 10:12:48;;;;;;;16.00;14.90;;;5.10;99.90;;;;;;5042649;28;20188;-78
2021/01/28 10:15:15;;;;;;;15.10;14.10;;;5.20;99.90;;;;;;5043009;28;20210;-77
2021/01/28 10:17:42;;;;;;;14.80;13.90;;;5.30;99.90;;;;;;5037964;28;20183;-77
2021/01/28 10:20:09;;;;;;;15.03;14.03;;;5.30;99.90;;;;;;5045388;28;20542;-78
2021/01/28 10:22:38;;;;;;;14.83;13.93;;;5.30;99.90;;;;;;5045677;28;20202;-77
2021/01/28 10:25:07;;;;;;;14.27;13.27;;;5.30;99.90;;;;;;5038581;28;20246;-77
2021/01/28 10:27:38;;;;;;;12.67;11.67;;;5.40;99.90;;;;;;5035970;28;20266;-77
2021/01/28 10:30:06;;;;;;;15.60;14.63;;;5.40;99.90;;;;;;5038922;28;20541;-77
2021/01/28 10:32:32;;;;;;;14.10;13.30;;;5.50;99.90;;;;;;5043570;28;20192;-78
2021/01/28 10:34:59;;;;;;;14.20;13.30;;;5.50;99.90;;;;;;5049773;28;20195;-77
2021/01/28 10:37:25;;;;;;;12.80;12.00;;;5.60;99.90;;;;;;5042394;28;20212;-77
2021/01/28 10:39:52;;;;;;;16.30;15.30;;;5.60;99.90;;;;;;5035963;28;20211;-77
2021/01/28 10:42:20;;;;;;;13.80;13.00;;;5.60;99.90;;;;;;5037796;28;20268;-77
2021/01/28 10:44:47;;;;;;;10.83;9.93;;;5.70;99.90;;;;;;5042330;28;20207;-77
2021/01/28 10:47:14;;;;;;;11.50;10.80;;;5.70;99.90;;;;;;5035300;28;20219;-77
2021/01/28 10:49:40;;;;;;;17.43;16.43;;;5.80;99.90;;;;;;5041087;28;20253;-77
2021/01/28 10:52:07;;;;;;;15.63;14.73;;;5.80;99.90;;;;;;5041058;28;20196;-77
2021/01/28 10:54:33;;;;;;;12.10;11.37;;;5.90;99.90;;;;;;5041405;28;20215;-77
2021/01/28 10:56:59;;;;;;;12.37;11.37;;;6.00;99.90;;;;;;5041655;28;20204;-77
2021/01/28 10:59:26;;;;;;;11.97;11.07;;;6.00;99.90;;;;;;5042477;28;20201;-77
2021/01/28 11:01:54;;;;;;;14.93;13.83;;;6.10;99.90;;;;;;5040736;28;20199;-77
2021/01/28 11:04:20;;;;;;;15.70;14.60;;;6.10;99.90;;;;;;5041039;28;20341;-77
2021/01/28 11:06:47;;;;;;;14.57;13.77;;;6.20;99.90;;;;;;5041550;28;20214;-77
2021/01/28 11:09:13;;;;;;;14.67;13.77;;;6.30;99.90;;;;;;5038683;28;20224;-77
2021/01/28 11:11:39;;;;;;;15.60;14.70;;;6.40;99.90;;;;;;5040531;28;20195;-77
2021/01/28 11:14:06;;;;;;;16.20;15.30;;;6.60;99.90;;;;;;5041566;28;20209;-76
2021/01/28 11:16:34;;;;;;;13.90;13.00;;;6.70;99.90;;;;;;5041697;28;20208;-78
2021/01/28 11:19:03;;;;;;;15.20;14.30;;;6.90;99.90;;;;;;5039828;28;20197;-77
2021/01/28 11:21:30;;;;;;;14.90;14.00;;;7.10;99.90;;;;;;5039445;28;20196;-77
2021/01/28 11:23:56;;;;;;;12.97;12.17;;;7.30;99.90;;;;;;5037569;28;20196;-77
2021/01/28 11:26:22;;;;;;;14.30;13.40;;;7.50;99.90;;;;;;5036488;28;20706;-77
2021/01/28 11:28:48;;;;;;;14.23;13.23;;;7.60;99.90;;;;;;5038707;28;20221;-78
2021/01/28 11:31:15;;;;;;;13.40;12.60;;;7.70;99.90;;;;;;5030344;28;20887;-77
2021/01/28 11:33:41;;;;;;;14.30;13.40;;;7.60;99.90;;;;;;5039553;28;20213;-78
2021/01/28 11:36:09;;;;;;;14.30;13.50;;;7.50;99.90;;;;;;5041903;28;20773;-77
2021/01/28 11:38:35;;;;;;;14.50;13.43;;;7.40;99.90;;;;;;5041166;28;20629;-76
2021/01/28 11:41:03;;;;;;;14.40;13.50;;;7.30;99.90;;;;;;5042198;28;20584;-77
2021/01/28 11:43:30;;;;;;;14.63;13.70;;;7.30;99.90;;;;;;5034288;28;20552;-78
2021/01/28 11:45:56;;;;;;;15.07;14.17;;;7.20;99.90;;;;;;5044060;28;20226;-77
2021/01/28 11:48:23;;;;;;;6.13;5.73;;;7.20;99.90;;;;;;5036366;28;20217;-78
2021/01/28 11:50:49;;;;;;;5.83;5.43;;;7.30;99.90;;;;;;5041082;28;20218;-77
2021/01/28 11:53:16;;;;;;;6.20;5.80;;;7.50;99.90;;;;;;5041317;28;20199;-77
2021/01/28 11:55:43;;;;;;;6.50;6.00;;;7.60;99.90;;;;;;5039876;28;20724;-77
2021/01/28 11:58:09;;;;;;;6.30;5.90;;;7.80;99.90;;;;;;5041786;28;20199;-78
2021/01/28 12:00:35;;;;;;;6.00;5.60;;;8.00;99.90;;;;;;5037084;28;20194;-76
2021/01/28 12:03:04;;;;;;;7.20;6.70;;;8.10;99.90;;;;;;5042577;28;20196;-78
2021/01/28 12:05:30;;;;;;;5.80;5.50;;;8.30;99.90;;;;;;5026489;28;20230;-78
2021/01/28 12:07:57;;;;;;;5.57;5.27;;;8.30;99.90;;;;;;5029268;28;20260;-78
2021/01/28 12:10:27;;;;;;;9.47;8.93;;;8.30;99.90;;;;;;5028362;28;20210;-78
2021/01/28 12:12:53;;;;;;;8.10;7.60;;;8.40;99.90;;;;;;5038004;28;20198;-78
2021/01/28 12:15:21;;;;;;;7.80;7.40;;;8.50;99.90;;;;;;5040833;28;20558;-78
2021/01/28 12:17:48;;;;;;;5.87;5.47;;;8.50;99.90;;;;;;5047161;28;20202;-77
2021/01/28 12:20:16;;;;;;;9.70;9.20;;;8.60;99.90;;;;;;5033759;28;20656;-78
2021/01/28 12:22:43;;;;;;;5.43;5.13;;;8.70;99.90;;;;;;5037174;28;20670;-78
2021/01/28 12:25:10;;;;;;;8.83;8.33;;;8.90;99.90;;;;;;5042019;28;20209;-77
2021/01/28 12:27:37;;;;;;;6.40;5.97;;;9.00;99.90;;;;;;5037798;28;20209;-78
2021/01/28 12:30:07;;;;;;;6.00;5.40;;;9.10;99.90;;;;;;5043730;28;20237;-77
2021/01/28 12:32:33;;;;;;;12.10;11.40;;;9.20;99.90;;;;;;5033853;28;20201;-78
2021/01/28 12:35:09;;;;;;;12.90;12.20;;;9.30;99.90;;;;;;5037667;28;20225;-77
2021/01/28 12:37:35;;;;;;;11.50;10.90;;;9.40;99.90;;;;;;5040248;28;20641;-78
2021/01/28 12:40:03;;;;;;;11.57;10.97;;;9.40;99.90;;;;;;5040966;28;20556;-78
2021/01/28 12:42:29;;;;;;;13.20;12.50;;;9.40;99.90;;;;;;5020034;28;20194;-78
2021/01/28 12:44:57;;;;;;;12.60;11.90;;;9.40;99.90;;;;;;5040865;28;20192;-78
2021/01/28 12:47:23;;;;;;;12.83;12.07;;;9.40;99.90;;;;;;5034025;28;20231;-77
2021/01/28 12:49:49;;;;;;;12.70;11.73;;;9.50;99.90;;;;;;5040451;28;20199;-78
2021/01/28 12:52:15;;;;;;;13.30;12.60;;;9.60;99.90;;;;;;5044642;28;20209;-78
2021/01/28 12:54:42;;;;;;;12.40;11.80;;;9.60;99.90;;;;;;5040256;28;20203;-78
2021/01/28 12:57:08;;;;;;;12.50;11.80;;;9.50;99.90;;;;;;5044027;28;20219;-77
2021/01/28 12:59:34;;;;;;;12.70;12.00;;;9.40;99.90;;;;;;5049274;28;20540;-78
2021/01/28 13:02:02;;;;;;;12.50;11.80;;;9.40;99.90;;;;;;5039228;28;20601;-78
2021/01/28 13:04:28;;;;;;;12.23;11.53;;;9.40;99.90;;;;;;5032717;28;20249;-77
2021/01/28 13:06:54;;;;;;;12.53;11.73;;;9.30;99.90;;;;;;5043709;28;20590;-77
2021/01/28 13:09:20;;;;;;;12.93;12.17;;;9.30;99.90;;;;;;5044471;28;20192;-78
2021/01/28 13:11:47;;;;;;;12.70;12.10;;;9.30;99.90;;;;;;5038812;28;20199;-77
2021/01/28 13:14:14;;;;;;;12.97;12.27;;;9.30;99.90;;;;;;5038697;28;20261;-78
2021/01/28 13:16:40;;;;;;;13.30;12.60;;;9.30;99.90;;;;;;5040558;28;20223;-77
2021/01/28 13:19:07;;;;;;;13.47;12.77;;;9.30;99.90;;;;;;5040749;28;20212;-78
2021/01/28 13:21:33;;;;;;;14.77;13.83;;;9.30;99.90;;;;;;5028221;28;20203;-78